createdAt,value
2023-04-09T00:01:12.606Z,99.90
2023-04-09T00:03:41.353Z,99.90
2023-04-09T00:06:09.514Z,99.90
2023-04-09T00:08:37.465Z,99.90
2023-04-09T00:11:06.998Z,99.90
2023-04-09T00:13:39.492Z,99.90
2023-04-09T00:16:09.110Z,99.90
2023-04-09T00:18:39.286Z,99.90
2023-04-09T00:21:08.589Z,99.90
2023-04-09T00:23:56.713Z,99.90
2023-04-09T00:26:26.299Z,99.90
2023-04-09T00:28:55.147Z,99.90
2023-04-09T00:31:35.127Z,99.90
2023-04-09T00:34:03.158Z,99.90
2023-04-09T00:36:31.216Z,99.90
2023-04-09T00:38:59.401Z,99.90
2023-04-09T00:41:28.740Z,99.90
2023-04-09T00:43:57.983Z,99.90
2023-04-09T00:46:26.399Z,99.90
2023-04-09T00:48:54.878Z,99.90
2023-04-09T00:51:22.923Z,99.90
2023-04-09T00:53:51.613Z,99.90
2023-04-09T00:56:21.655Z,99.90
2023-04-09T00:58:51.340Z,99.90
2023-04-09T01:01:19.638Z,99.90
2023-04-09T01:03:47.767Z,99.90
2023-04-09T01:06:23.984Z,99.90
2023-04-09T01:09:19.206Z,99.90
2023-04-09T01:11:57.577Z,99.90
2023-04-09T01:14:33.982Z,99.90
2023-04-09T01:17:06.135Z,99.90
2023-04-09T01:19:47.385Z,99.90
2023-04-09T01:22:30.496Z,99.90
2023-04-09T01:25:08.156Z,99.90
2023-04-09T01:27:45.351Z,99.90
2023-04-09T01:30:17.143Z,99.90
2023-04-09T01:32:45.653Z,99.90
2023-04-09T01:35:14.899Z,99.90
2023-04-09T01:37:43.516Z,99.90
2023-04-09T01:40:12.709Z,99.90
2023-04-09T01:42:42.227Z,99.90
2023-04-09T01:45:13.368Z,99.90
2023-04-09T01:47:43.686Z,99.90
2023-04-09T01:50:12.153Z,99.90
2023-04-09T01:52:40.739Z,99.90
2023-04-09T01:55:09.754Z,99.90
2023-04-09T01:57:37.855Z,99.90
2023-04-09T02:00:07.873Z,99.90
2023-04-09T02:02:43.838Z,99.90
2023-04-09T02:05:17.510Z,99.90
2023-04-09T02:07:53.270Z,99.90
2023-04-09T02:10:23.902Z,99.90
2023-04-09T02:12:54.459Z,99.90
2023-04-09T02:15:23.459Z,99.90
2023-04-09T02:17:52.158Z,99.90
2023-04-09T02:20:22.247Z,99.90
2023-04-09T02:22:50.448Z,99.90
2023-04-09T02:25:18.452Z,99.90
2023-04-09T02:27:46.901Z,99.90
2023-04-09T02:30:15.045Z,99.90
2023-04-09T02:32:43.266Z,99.90
2023-04-09T02:35:11.731Z,99.90
2023-04-09T02:37:41.180Z,99.90
2023-04-09T02:40:10.393Z,99.90
2023-04-09T02:42:38.397Z,99.90
2023-04-09T02:45:07.484Z,99.90
2023-04-09T02:47:35.502Z,99.90
2023-04-09T02:50:03.550Z,99.90
2023-04-09T02:52:31.643Z,99.90
2023-04-09T02:55:00.992Z,99.90
2023-04-09T02:57:28.991Z,99.90
2023-04-09T02:59:57.216Z,99.90
2023-04-09T03:02:25.301Z,99.90
2023-04-09T03:04:53.660Z,99.90
2023-04-09T03:07:21.835Z,99.90
2023-04-09T03:09:49.865Z,99.90
2023-04-09T03:12:19.242Z,99.90
2023-04-09T03:14:47.251Z,99.90
2023-04-09T03:17:15.304Z,99.90
2023-04-09T03:19:43.354Z,99.90
2023-04-09T03:22:11.361Z,99.90
2023-04-09T03:24:39.400Z,99.90
2023-04-09T03:27:07.425Z,99.90
2023-04-09T03:29:36.865Z,99.90
2023-04-09T03:32:04.847Z,99.90
2023-04-09T03:34:32.871Z,99.90
2023-04-09T03:37:01.019Z,99.90
2023-04-09T03:39:30.793Z,99.90
2023-04-09T03:41:59.163Z,99.90
2023-04-09T03:44:27.185Z,99.90
2023-04-09T03:46:56.959Z,99.90
2023-04-09T03:49:25.066Z,99.90
2023-04-09T03:51:53.291Z,99.90
2023-04-09T03:54:24.303Z,99.90
2023-04-09T03:56:52.299Z,99.90
2023-04-09T03:59:20.304Z,99.90
2023-04-09T04:01:48.498Z,99.90
2023-04-09T04:04:19.389Z,99.90
2023-04-09T04:06:48.538Z,99.90
2023-04-09T04:09:16.520Z,99.90
2023-04-09T04:11:44.523Z,99.90
2023-04-09T04:14:12.612Z,99.90
2023-04-09T04:16:41.634Z,99.90
2023-04-09T04:19:09.687Z,99.90
2023-04-09T04:21:39.241Z,99.90
2023-04-09T04:24:07.949Z,99.90
2023-04-09T04:26:35.948Z,99.90
2023-04-09T04:29:04.068Z,99.90
2023-04-09T04:31:32.069Z,99.90
2023-04-09T04:34:00.200Z,99.90
2023-04-09T04:36:28.280Z,99.90
2023-04-09T04:38:57.807Z,99.90
2023-04-09T04:41:25.879Z,99.90
2023-04-09T04:43:53.850Z,99.90
2023-04-09T04:46:21.917Z,99.90
2023-04-09T04:48:50.057Z,99.90
2023-04-09T04:51:18.300Z,99.90
2023-04-09T04:53:46.371Z,99.90
2023-04-09T04:56:16.549Z,99.90
2023-04-09T04:58:45.014Z,99.90
2023-04-09T05:01:13.160Z,99.90
2023-04-09T05:03:41.291Z,99.90
2023-04-09T05:06:09.433Z,99.90
2023-04-09T05:08:37.378Z,99.90
2023-04-09T05:11:05.400Z,99.90
2023-04-09T05:13:34.817Z,99.90
2023-04-09T05:16:03.852Z,99.90
2023-04-09T05:18:31.774Z,99.90
2023-04-09T05:20:59.888Z,99.90
2023-04-09T05:23:27.923Z,99.90
2023-04-09T05:25:55.907Z,99.90
2023-04-09T05:28:24.118Z,99.90
2023-04-09T05:30:53.563Z,99.90
2023-04-09T05:33:21.612Z,99.90
2023-04-09T05:35:49.927Z,99.90
2023-04-09T05:38:17.913Z,99.90
2023-04-09T05:40:46.100Z,99.90
2023-04-09T05:43:14.191Z,99.90
2023-04-09T05:45:42.373Z,99.90
2023-04-09T05:48:11.992Z,99.90
2023-04-09T05:50:51.589Z,99.90
2023-04-09T05:53:23.701Z,99.90
2023-04-09T05:55:51.855Z,99.90
2023-04-09T05:58:20.167Z,99.90
2023-04-09T06:00:48.463Z,99.90
2023-04-09T06:03:17.991Z,99.90
2023-04-09T06:05:46.975Z,99.90
2023-04-09T06:08:15.203Z,99.90
2023-04-09T06:10:43.174Z,99.90
2023-04-09T06:13:11.473Z,99.90
2023-04-09T06:15:39.708Z,99.90
2023-04-09T06:18:07.869Z,99.90
2023-04-09T06:20:37.174Z,99.90
2023-04-09T06:23:05.365Z,99.90
2023-04-09T06:25:33.519Z,99.90
2023-04-09T06:28:01.531Z,99.90
2023-04-09T06:30:29.856Z,99.90
2023-04-09T06:32:58.340Z,99.90
2023-04-09T06:35:26.720Z,99.90
2023-04-09T06:37:56.215Z,99.90
2023-04-09T06:40:24.294Z,99.90
2023-04-09T06:42:52.336Z,99.90
2023-04-09T06:45:20.342Z,99.90
2023-04-09T06:47:48.540Z,99.90
2023-04-09T06:50:16.667Z,99.90
2023-04-09T06:52:44.600Z,99.90
2023-04-09T06:55:14.238Z,99.90
2023-04-09T06:57:42.247Z,99.90
2023-04-09T07:00:11.697Z,99.90
2023-04-09T07:02:40.048Z,99.90
2023-04-09T07:05:09.259Z,99.90
2023-04-09T07:07:37.246Z,99.90
2023-04-09T07:10:06.407Z,99.90
2023-04-09T07:12:36.207Z,99.90
2023-04-09T07:15:06.149Z,99.90
2023-04-09T07:17:34.816Z,99.90
2023-04-09T07:20:03.739Z,99.90
2023-04-09T07:22:32.303Z,99.90
2023-04-09T07:25:00.671Z,99.90
2023-04-09T07:27:29.581Z,99.90
2023-04-09T07:29:59.969Z,99.90
2023-04-09T07:32:29.112Z,99.90
2023-04-09T07:34:57.217Z,99.90
2023-04-09T07:37:25.268Z,99.90
2023-04-09T07:39:53.592Z,99.90
2023-04-09T07:42:21.879Z,99.90
2023-04-09T07:44:49.985Z,99.90
2023-04-09T07:47:19.816Z,99.90
2023-04-09T07:49:47.851Z,99.90
2023-04-09T07:52:15.866Z,99.90
2023-04-09T07:54:44.012Z,99.90
2023-04-09T07:57:12.150Z,99.90
2023-04-09T07:59:40.144Z,99.90
2023-04-09T08:02:09.140Z,99.90
2023-04-09T08:04:39.107Z,99.90
2023-04-09T08:07:07.863Z,99.90
2023-04-09T08:09:36.001Z,99.90
2023-04-09T08:12:04.114Z,99.90
2023-04-09T08:14:32.127Z,99.90
2023-04-09T08:17:01.544Z,99.90
2023-04-09T08:19:29.759Z,99.90
2023-04-09T08:21:59.072Z,99.90
2023-04-09T08:24:27.371Z,99.90
2023-04-09T08:26:56.761Z,99.90
2023-04-09T08:29:24.833Z,99.90
2023-04-09T08:31:52.960Z,99.90
2023-04-09T08:34:22.221Z,99.90
2023-04-09T08:36:50.486Z,99.90
2023-04-09T08:39:20.765Z,99.90
2023-04-09T08:41:48.906Z,99.90
2023-04-09T08:44:17.655Z,99.90
2023-04-09T08:46:45.838Z,99.90
2023-04-09T08:49:14.275Z,99.90
2023-04-09T08:51:47.393Z,99.90
2023-04-09T08:54:17.154Z,99.90
2023-04-09T08:56:47.008Z,99.90
2023-04-09T08:59:18.070Z,99.90
2023-04-09T09:01:49.246Z,99.90
2023-04-09T09:04:17.322Z,99.90
2023-04-09T09:06:45.977Z,99.90
2023-04-09T09:09:14.970Z,99.90
2023-04-09T09:11:44.487Z,99.90
2023-04-09T09:14:15.066Z,99.90
2023-04-09T09:16:45.079Z,99.90
2023-04-09T09:19:31.367Z,99.90
2023-04-09T09:22:00.662Z,99.90
2023-04-09T09:24:29.379Z,99.90
2023-04-09T09:26:58.850Z,99.90
2023-04-09T09:29:29.265Z,99.90
2023-04-09T09:31:57.799Z,99.90
2023-04-09T09:34:26.780Z,99.90
2023-04-09T09:36:54.791Z,99.90
2023-04-09T09:39:23.128Z,99.90
2023-04-09T09:42:08.894Z,99.90
2023-04-09T09:44:38.345Z,99.90
2023-04-09T09:47:07.008Z,99.90
2023-04-09T09:49:35.080Z,99.90
2023-04-09T09:52:05.991Z,99.90
2023-04-09T09:54:41.658Z,99.90
2023-04-09T09:57:13.245Z,99.90
2023-04-09T09:59:48.616Z,99.90
2023-04-09T10:02:21.794Z,99.90
2023-04-09T10:04:53.120Z,99.90
2023-04-09T10:07:22.778Z,99.90
2023-04-09T10:09:52.892Z,99.90
2023-04-09T10:12:24.418Z,99.90
2023-04-09T10:14:56.517Z,99.90
2023-04-09T10:17:24.554Z,99.90
2023-04-09T10:19:58.293Z,99.90
2023-04-09T10:22:28.677Z,99.90
2023-04-09T10:24:58.020Z,99.90
2023-04-09T10:27:28.345Z,99.90
2023-04-09T10:29:57.778Z,99.90
2023-04-09T10:32:27.981Z,99.90
2023-04-09T10:34:59.415Z,99.90
2023-04-09T10:37:28.744Z,99.90
2023-04-09T10:39:58.012Z,99.90
2023-04-09T10:42:33.308Z,99.90
2023-04-09T10:45:11.316Z,99.90
2023-04-09T10:47:41.410Z,99.90
2023-04-09T10:50:17.703Z,99.90
2023-04-09T10:52:45.886Z,99.90
2023-04-09T10:55:32.293Z,99.90
2023-04-09T10:58:00.534Z,99.90
2023-04-09T11:00:30.044Z,99.90
2023-04-09T11:03:16.196Z,99.90
2023-04-09T11:05:45.944Z,99.90
2023-04-09T11:08:15.438Z,99.90
2023-04-09T11:10:46.201Z,99.90
2023-04-09T11:13:15.726Z,99.90
2023-04-09T11:15:46.552Z,99.90
2023-04-09T11:18:21.777Z,99.90
2023-04-09T11:20:49.766Z,99.90
2023-04-09T11:23:18.814Z,99.90
2023-04-09T11:25:51.626Z,99.90
2023-04-09T11:28:20.340Z,99.90
2023-04-09T11:30:52.257Z,99.90
2023-04-09T11:33:20.784Z,99.90
2023-04-09T11:35:49.276Z,99.90
2023-04-09T11:38:17.977Z,99.90
2023-04-09T11:40:49.235Z,99.90
2023-04-09T11:43:18.325Z,99.90
2023-04-09T11:45:48.458Z,99.90
2023-04-09T11:48:19.231Z,99.90
2023-04-09T11:50:47.626Z,99.90
2023-04-09T11:53:20.209Z,99.90
2023-04-09T11:55:50.621Z,99.90
2023-04-09T11:58:18.671Z,99.90
2023-04-09T12:00:48.388Z,99.90
2023-04-09T12:03:18.062Z,99.90
2023-04-09T12:05:51.033Z,99.90
2023-04-09T12:08:25.079Z,99.90
2023-04-09T12:10:54.095Z,99.90
2023-04-09T12:13:22.174Z,99.90
2023-04-09T12:15:51.361Z,99.90
2023-04-09T12:18:23.715Z,99.90
2023-04-09T12:20:51.689Z,99.90
2023-04-09T12:23:19.830Z,99.90
2023-04-09T12:25:48.122Z,99.90
2023-04-09T12:28:18.294Z,99.90
2023-04-09T12:30:46.953Z,99.90
2023-04-09T12:33:14.975Z,99.90
2023-04-09T12:35:46.242Z,99.90
2023-04-09T12:38:14.386Z,99.90
2023-04-09T12:40:42.362Z,99.90
2023-04-09T12:43:10.457Z,99.90
2023-04-09T12:45:38.537Z,99.90
2023-04-09T12:48:06.724Z,99.90
2023-04-09T12:50:34.764Z,99.90
2023-04-09T12:53:04.064Z,99.90
2023-04-09T12:55:32.738Z,99.90
2023-04-09T12:58:01.849Z,99.90
2023-04-09T13:00:31.224Z,99.90
2023-04-09T13:02:59.747Z,99.90
2023-04-09T13:05:28.789Z,99.90
2023-04-09T13:07:57.143Z,99.90
2023-04-09T13:10:26.582Z,99.90
2023-04-09T13:12:54.584Z,99.90
2023-04-09T13:15:22.752Z,99.90
2023-04-09T13:17:50.913Z,99.90
2023-04-09T13:20:19.156Z,99.90
2023-04-09T13:22:49.022Z,99.70
2023-04-09T13:25:17.207Z,99.90
2023-04-09T13:27:46.626Z,99.90
2023-04-09T13:30:15.132Z,99.90
2023-04-09T13:32:43.716Z,99.90
2023-04-09T13:35:11.864Z,99.90
2023-04-09T13:37:39.919Z,99.90
2023-04-09T13:40:10.156Z,99.90
2023-04-09T13:42:38.458Z,99.90
2023-04-09T13:45:08.735Z,99.90
2023-04-09T13:47:36.955Z,99.90
2023-04-09T13:50:05.432Z,99.50
2023-04-09T13:52:33.522Z,99.50
2023-04-09T13:55:01.582Z,99.80
2023-04-09T13:57:29.566Z,99.80
2023-04-09T13:59:57.562Z,99.90
2023-04-09T14:02:28.049Z,99.20
2023-04-09T14:04:56.896Z,98.90
2023-04-09T14:07:24.917Z,97.90
2023-04-09T14:09:52.876Z,96.60
2023-04-09T14:12:21.142Z,97.50
2023-04-09T14:14:49.961Z,97.20
2023-04-09T14:17:18.415Z,98.40
2023-04-09T14:19:47.796Z,97.20
2023-04-09T14:22:15.866Z,97.20
2023-04-09T14:24:43.888Z,97.80
2023-04-09T14:27:11.992Z,96.90
2023-04-09T14:29:39.930Z,97.00
2023-04-09T14:32:08.067Z,95.70
2023-04-09T14:34:36.756Z,96.70
2023-04-09T14:37:06.020Z,96.40
2023-04-09T14:39:36.496Z,97.30
2023-04-09T14:42:04.506Z,95.80
2023-04-09T14:44:32.876Z,95.20
2023-04-09T14:47:00.956Z,96.20
2023-04-09T14:49:29.015Z,96.70
2023-04-09T14:51:57.061Z,95.80
2023-04-09T14:54:26.408Z,95.30
2023-04-09T14:56:54.354Z,96.20
2023-04-09T14:59:22.557Z,96.20
2023-04-09T15:01:50.729Z,95.70
2023-04-09T15:04:19.064Z,94.80
2023-04-09T15:06:47.880Z,93.90
2023-04-09T15:09:15.940Z,93.70
2023-04-09T15:11:45.362Z,93.70
2023-04-09T15:14:13.280Z,93.50
2023-04-09T15:16:41.625Z,94.00
2023-04-09T15:19:09.728Z,93.60
2023-04-09T15:21:37.662Z,94.10
2023-04-09T15:24:05.767Z,93.40
2023-04-09T15:26:35.748Z,93.10
2023-04-09T15:29:09.241Z,91.40
2023-04-09T15:31:38.988Z,91.60
2023-04-09T15:34:08.191Z,91.60
2023-04-09T15:36:36.158Z,92.30
2023-04-09T15:39:04.734Z,92.30
2023-04-09T15:41:33.748Z,91.90
2023-04-09T15:44:01.944Z,91.50
2023-04-09T15:46:31.550Z,91.20
2023-04-09T15:48:59.547Z,91.50
2023-04-09T15:51:27.681Z,92.00
2023-04-09T15:53:55.666Z,92.50
2023-04-09T15:56:23.640Z,91.50
2023-04-09T15:58:51.864Z,92.10
2023-04-09T16:01:20.057Z,92.80
2023-04-09T16:03:52.445Z,92.50
2023-04-09T16:06:21.010Z,92.00
2023-04-09T16:08:48.940Z,92.20
2023-04-09T16:11:17.217Z,92.70
2023-04-09T16:13:45.158Z,93.20
2023-04-09T16:16:13.272Z,93.40
2023-04-09T16:18:41.336Z,93.00
2023-04-09T16:21:10.688Z,93.50
2023-04-09T16:23:38.687Z,93.10
2023-04-09T16:26:07.106Z,92.20
2023-04-09T16:28:34.995Z,91.70
2023-04-09T16:31:03.182Z,91.70
2023-04-09T16:33:31.331Z,92.30
2023-04-09T16:35:59.528Z,91.40
2023-04-09T16:38:29.225Z,91.60
2023-04-09T16:40:57.389Z,91.00
2023-04-09T16:43:25.950Z,90.50
2023-04-09T16:45:54.119Z,90.20
2023-04-09T16:48:22.151Z,90.90
2023-04-09T16:50:50.184Z,90.10
2023-04-09T16:53:18.156Z,88.50
2023-04-09T16:55:47.516Z,87.30
2023-04-09T16:58:15.582Z,89.10
2023-04-09T17:00:46.110Z,90.40
2023-04-09T17:03:15.016Z,91.20
2023-04-09T17:05:45.259Z,91.20
2023-04-09T17:08:13.218Z,91.40
2023-04-09T17:10:41.227Z,90.10
2023-04-09T17:13:10.832Z,90.00
2023-04-09T17:15:38.928Z,90.60
2023-04-09T17:18:07.192Z,90.40
2023-04-09T17:20:35.139Z,91.00
2023-04-09T17:23:03.034Z,90.80
2023-04-09T17:25:31.138Z,90.80
2023-04-09T17:27:59.029Z,91.80
2023-04-09T17:30:28.580Z,91.20
2023-04-09T17:32:56.636Z,91.40
2023-04-09T17:35:24.816Z,92.30
2023-04-09T17:37:52.826Z,91.90
2023-04-09T17:40:21.121Z,92.80
2023-04-09T17:42:49.309Z,93.40
2023-04-09T17:45:17.484Z,93.50
2023-04-09T17:47:47.036Z,94.60
2023-04-09T17:50:15.246Z,96.00
2023-04-09T17:52:43.461Z,96.30
2023-04-09T17:55:13.028Z,96.80
2023-04-09T17:57:41.696Z,97.30
2023-04-09T18:00:11.119Z,99.40
2023-04-09T18:02:39.367Z,99.80
2023-04-09T18:05:09.990Z,99.90
2023-04-09T18:07:38.822Z,99.90
2023-04-09T18:10:07.654Z,99.90
2023-04-09T18:12:35.634Z,99.90
2023-04-09T18:15:04.390Z,99.90
2023-04-09T18:17:32.509Z,99.90
2023-04-09T18:20:00.755Z,99.90
2023-04-09T18:22:30.074Z,99.90
2023-04-09T18:24:58.032Z,99.90
2023-04-09T18:27:26.082Z,99.90
2023-04-09T18:29:54.132Z,99.90
2023-04-09T18:32:22.498Z,99.90
2023-04-09T18:34:52.092Z,99.90
2023-04-09T18:37:20.482Z,99.90
2023-04-09T18:39:49.906Z,99.90
2023-04-09T18:42:17.869Z,99.90
2023-04-09T18:44:46.531Z,99.90
2023-04-09T18:47:14.659Z,99.90
2023-04-09T18:49:42.596Z,99.90
2023-04-09T18:52:10.752Z,99.90
2023-04-09T18:54:39.005Z,99.90
2023-04-09T18:57:08.688Z,99.90
2023-04-09T18:59:36.593Z,99.90
2023-04-09T19:02:05.138Z,99.90
2023-04-09T19:04:36.311Z,99.90
2023-04-09T19:07:04.725Z,99.90
2023-04-09T19:09:33.562Z,99.90
2023-04-09T19:12:01.707Z,99.90
2023-04-09T19:14:31.300Z,99.90
2023-04-09T19:16:59.570Z,99.90
2023-04-09T19:19:28.928Z,99.90
2023-04-09T19:21:57.250Z,99.90
2023-04-09T19:24:25.318Z,99.90
2023-04-09T19:26:53.435Z,99.90
2023-04-09T19:29:21.500Z,99.90
2023-04-09T19:31:51.076Z,99.90
2023-04-09T19:34:19.072Z,99.90
2023-04-09T19:36:47.036Z,99.90
2023-04-09T19:39:15.416Z,99.90
2023-04-09T19:41:43.373Z,99.90
2023-04-09T19:44:11.441Z,99.90
2023-04-09T19:46:39.457Z,99.90
2023-04-09T19:49:08.810Z,99.90
2023-04-09T19:51:36.823Z,99.90
2023-04-09T19:54:04.872Z,99.90
2023-04-09T19:56:33.573Z,99.90
2023-04-09T19:59:02.277Z,99.90
2023-04-09T20:01:30.274Z,99.90
2023-04-09T20:03:58.686Z,99.90
2023-04-09T20:06:28.913Z,99.90
2023-04-09T20:08:56.870Z,99.90
2023-04-09T20:11:24.740Z,99.90
2023-04-09T20:13:52.744Z,99.90
2023-04-09T20:16:20.713Z,99.90
2023-04-09T20:18:48.721Z,99.90
2023-04-09T20:21:16.662Z,99.90
2023-04-09T20:23:46.215Z,99.90
2023-04-09T20:26:14.372Z,99.90
2023-04-09T20:28:42.384Z,99.90
2023-04-09T20:31:10.289Z,99.90
2023-04-09T20:33:38.186Z,99.90
2023-04-09T20:36:14.862Z,99.90
2023-04-09T20:38:43.092Z,99.90
2023-04-09T20:41:12.393Z,99.90
2023-04-09T20:43:40.383Z,99.90
2023-04-09T20:46:08.740Z,99.90
2023-04-09T20:48:36.753Z,99.90
2023-04-09T20:51:09.425Z,99.90
2023-04-09T20:53:37.487Z,99.90
2023-04-09T20:56:05.939Z,99.90
2023-04-09T20:58:35.291Z,99.90
2023-04-09T21:01:05.275Z,99.90
2023-04-09T21:03:34.606Z,99.90
2023-04-09T21:06:03.338Z,99.90
2023-04-09T21:08:31.464Z,99.90
2023-04-09T21:10:59.720Z,99.90
2023-04-09T21:13:27.883Z,99.90
2023-04-09T21:15:58.405Z,99.90
2023-04-09T21:18:26.350Z,99.90
2023-04-09T21:20:54.280Z,99.90
2023-04-09T21:23:22.281Z,99.90
2023-04-09T21:25:50.158Z,99.90
2023-04-09T21:28:18.140Z,99.90
2023-04-09T21:30:46.146Z,99.90
2023-04-09T21:33:15.554Z,99.90
2023-04-09T21:35:43.487Z,99.90
2023-04-09T21:38:11.469Z,99.90
2023-04-09T21:40:39.420Z,99.90
2023-04-09T21:43:08.754Z,99.90
2023-04-09T21:45:36.670Z,99.90
2023-04-09T21:48:04.762Z,99.90
2023-04-09T21:50:34.108Z,99.90
2023-04-09T21:53:03.046Z,99.90
2023-04-09T21:55:31.018Z,99.90
2023-04-09T21:57:58.985Z,99.90
2023-04-09T22:00:27.483Z,99.90
2023-04-09T22:03:01.363Z,99.90
2023-04-09T22:05:29.484Z,99.90
2023-04-09T22:07:58.770Z,99.90
2023-04-09T22:10:28.136Z,99.90
2023-04-09T22:12:56.373Z,99.90
2023-04-09T22:15:24.273Z,99.90
2023-04-09T22:17:52.766Z,99.90
2023-04-09T22:20:21.263Z,99.90
2023-04-09T22:22:49.142Z,99.90
2023-04-09T22:25:18.464Z,99.90
2023-04-09T22:27:50.542Z,99.90
2023-04-09T22:30:18.511Z,99.90
2023-04-09T22:32:46.428Z,99.90
2023-04-09T22:35:17.932Z,99.90
2023-04-09T22:37:46.981Z,99.90
2023-04-09T22:40:16.161Z,99.90
2023-04-09T22:42:47.788Z,99.90
2023-04-09T22:45:15.943Z,99.90
2023-04-09T22:47:43.992Z,99.90
2023-04-09T22:50:13.482Z,99.90
2023-04-09T22:52:41.492Z,99.90
2023-04-09T22:55:10.890Z,99.90
2023-04-09T22:57:41.073Z,99.90
2023-04-09T23:00:12.144Z,99.90
2023-04-09T23:02:40.260Z,99.90
2023-04-09T23:05:10.958Z,99.90
2023-04-09T23:07:38.958Z,99.90
2023-04-09T23:10:07.784Z,99.90
2023-04-09T23:12:35.898Z,99.90
2023-04-09T23:15:03.956Z,99.90
2023-04-09T23:17:34.954Z,99.90
2023-04-09T23:20:03.171Z,99.90
2023-04-09T23:22:31.063Z,99.90
2023-04-09T23:24:59.070Z,99.90
2023-04-09T23:27:28.794Z,99.90
2023-04-09T23:29:57.204Z,99.90
2023-04-09T23:32:25.442Z,99.90
2023-04-09T23:34:56.884Z,99.90
2023-04-09T23:37:24.810Z,99.90
2023-04-09T23:39:52.817Z,99.90
2023-04-09T23:42:21.122Z,99.90
2023-04-09T23:44:50.239Z,99.90
2023-04-09T23:47:18.344Z,99.90
2023-04-09T23:49:46.785Z,99.90
2023-04-09T23:52:16.213Z,99.90
2023-04-09T23:54:51.027Z,99.90
2023-04-09T23:57:19.038Z,99.90
2023-04-09T23:59:46.945Z,99.90
